createdAt,value
2019-05-12T00:02:39.453Z,70.89
2019-05-12T00:07:41.388Z,71.96
2019-05-12T00:12:44.595Z,72.50
2019-05-12T00:17:48.137Z,72.86
2019-05-12T00:22:58.015Z,72.40
2019-05-12T00:28:00.459Z,72.35
2019-05-12T00:33:03.897Z,72.47
2019-05-12T00:38:08.954Z,72.88
2019-05-12T00:43:12.199Z,73.11
2019-05-12T00:48:17.657Z,73.43
2019-05-12T00:53:20.523Z,73.49
2019-05-12T00:58:23.670Z,73.90
2019-05-12T01:03:27.911Z,74.17
2019-05-12T01:08:34.095Z,74.05
2019-05-12T01:13:38.252Z,74.69
2019-05-12T01:18:41.352Z,75.23
2019-05-12T01:23:56.413Z,75.02
2019-05-12T01:28:50.000Z,75.24
2019-05-12T01:33:53.153Z,75.16
2019-05-12T01:38:59.153Z,74.92
2019-05-12T01:44:01.145Z,74.65
2019-05-12T01:49:04.045Z,74.30
2019-05-12T01:54:13.831Z,74.61
2019-05-12T01:59:11.895Z,74.75
2019-05-12T02:04:15.046Z,74.97
2019-05-12T02:09:20.640Z,75.03
2019-05-12T02:14:23.776Z,75.44
2019-05-12T02:19:28.255Z,75.67
2019-05-12T02:24:31.576Z,76.28
2019-05-12T02:29:34.781Z,76.43
2019-05-12T02:34:38.005Z,76.38
2019-05-12T02:39:40.633Z,76.60
2019-05-12T02:44:44.437Z,77.03
2019-05-12T02:49:47.670Z,76.82
2019-05-12T02:54:56.910Z,76.79
2019-05-12T02:59:57.693Z,76.97
2019-05-12T03:05:05.377Z,77.92
2019-05-12T03:10:07.763Z,78.12
2019-05-12T03:15:14.886Z,78.40
2019-05-12T03:20:16.197Z,78.98
2019-05-12T03:25:24.651Z,79.76
2019-05-12T03:30:29.084Z,79.39
2019-05-12T03:35:39.421Z,78.68
2019-05-12T03:40:37.673Z,78.28
2019-05-12T03:45:39.519Z,78.28
2019-05-12T03:50:46.184Z,78.92
2019-05-12T03:55:48.271Z,78.62
2019-05-12T04:00:51.097Z,78.63
2019-05-12T04:05:55.342Z,78.83
2019-05-12T04:10:59.131Z,79.26
2019-05-12T04:16:04.899Z,79.20
2019-05-12T04:21:07.794Z,79.42
2019-05-12T04:26:15.778Z,79.49
2019-05-12T04:31:16.397Z,79.03
2019-05-12T04:36:19.653Z,79.38
2019-05-12T04:41:26.031Z,78.50
2019-05-12T04:46:28.071Z,78.48
2019-05-12T04:51:34.642Z,78.01
2019-05-12T04:56:36.364Z,77.18
2019-05-12T05:01:40.056Z,77.99
2019-05-12T05:06:44.858Z,76.49
2019-05-12T05:11:48.247Z,76.52
2019-05-12T05:16:54.101Z,76.14
2019-05-12T05:21:56.380Z,74.91
2019-05-12T05:26:59.997Z,74.03
2019-05-12T05:32:03.527Z,74.31
2019-05-12T05:37:07.099Z,73.56
2019-05-12T05:42:10.573Z,72.92
2019-05-12T05:47:13.993Z,72.89
2019-05-12T05:52:17.273Z,72.05
2019-05-12T05:57:25.797Z,71.91
2019-05-12T06:02:32.058Z,72.00
2019-05-12T06:07:38.915Z,72.46
2019-05-12T06:12:40.358Z,70.94
2019-05-12T06:17:44.276Z,70.88
2019-05-12T06:22:48.747Z,70.71
2019-05-12T06:28:00.188Z,70.15
2019-05-12T06:32:57.438Z,70.28
2019-05-12T06:38:04.997Z,69.54
2019-05-12T06:43:08.556Z,68.25
2019-05-12T06:48:14.043Z,68.05
2019-05-12T06:58:55.538Z,66.40
2019-05-12T07:04:00.594Z,66.39
2019-05-12T07:09:09.918Z,66.24
2019-05-12T07:14:19.041Z,62.96
2019-05-12T07:19:22.481Z,63.58
2019-05-12T07:24:23.859Z,64.37
2019-05-12T07:29:27.302Z,61.66
2019-05-12T07:34:30.474Z,62.20
2019-05-12T07:39:37.038Z,60.50
2019-05-12T07:44:44.083Z,60.35
2019-05-12T07:49:46.777Z,58.65
2019-05-12T07:54:52.857Z,59.39
2019-05-12T07:59:54.764Z,58.50
2019-05-12T08:04:58.005Z,58.10
2019-05-12T08:10:01.224Z,56.94
2019-05-12T08:15:09.308Z,58.00
2019-05-12T08:20:09.532Z,54.51
2019-05-12T08:25:13.696Z,53.20
2019-05-12T08:30:21.445Z,50.95
2019-05-12T08:35:29.022Z,53.00
2019-05-12T08:40:29.571Z,52.92
2019-05-12T08:45:36.764Z,52.44
2019-05-12T08:50:37.573Z,51.46
2019-05-12T08:55:43.568Z,52.08
2019-05-12T09:00:50.409Z,51.48
2019-05-12T09:05:53.666Z,51.45
2019-05-12T09:10:56.952Z,46.55
2019-05-12T09:16:00.141Z,45.29
2019-05-12T09:21:03.892Z,44.29
2019-05-12T09:26:07.412Z,46.14
2019-05-12T09:31:10.586Z,48.79
2019-05-12T09:36:19.936Z,47.94
2019-05-12T09:41:19.323Z,47.49
2019-05-12T09:46:23.283Z,46.88
2019-05-12T09:51:27.005Z,48.37
2019-05-12T09:56:30.660Z,45.15
2019-05-12T10:01:37.408Z,46.59
2019-05-12T10:06:39.091Z,46.71
2019-05-12T10:11:44.717Z,40.97
2019-05-12T10:16:49.690Z,45.47
2019-05-12T10:21:55.159Z,46.11
2019-05-12T10:26:57.601Z,46.24
2019-05-12T10:31:59.774Z,49.22
2019-05-12T10:37:04.174Z,48.87
2019-05-12T10:42:07.566Z,44.45
2019-05-12T10:47:10.567Z,45.89
2019-05-12T10:52:14.205Z,49.86
2019-05-12T10:57:17.704Z,47.08
2019-05-12T11:02:26.500Z,47.22
2019-05-12T11:07:27.985Z,46.05
2019-05-12T11:12:33.225Z,46.57
2019-05-12T11:17:54.475Z,46.13
2019-05-12T11:23:03.573Z,45.73
2019-05-12T11:28:14.012Z,45.37
2019-05-12T11:33:18.683Z,44.72
2019-05-12T11:38:28.183Z,46.50
2019-05-12T11:43:35.660Z,44.80
2019-05-12T11:49:14.013Z,46.43
2019-05-12T11:54:51.252Z,43.38
2019-05-12T12:00:02.251Z,40.83
2019-05-12T12:05:23.520Z,42.77
2019-05-12T12:10:35.508Z,42.73
2019-05-12T12:15:43.954Z,41.93
2019-05-12T12:20:47.353Z,40.84
2019-05-12T12:25:53.444Z,41.24
2019-05-12T12:31:00.830Z,41.50
2019-05-12T12:36:04.295Z,40.63
2019-05-12T12:41:09.431Z,40.13
2019-05-12T12:46:21.620Z,39.89
2019-05-12T12:51:25.259Z,40.08
2019-05-12T12:56:30.072Z,38.10
2019-05-12T13:01:35.753Z,40.50
2019-05-12T13:06:40.241Z,39.64
2019-05-12T13:11:44.427Z,37.89
2019-05-12T13:16:49.422Z,35.76
2019-05-12T13:21:53.193Z,37.26
2019-05-12T13:26:55.977Z,38.38
2019-05-12T13:31:59.537Z,36.40
2019-05-12T13:37:03.441Z,35.74
2019-05-12T13:42:10.213Z,35.18
2019-05-12T13:47:14.076Z,34.90
2019-05-12T13:52:20.287Z,36.04
2019-05-12T13:57:23.628Z,34.59
2019-05-12T14:02:26.971Z,34.65
2019-05-12T14:07:30.478Z,33.28
2019-05-12T14:12:33.600Z,32.91
2019-05-12T14:17:40.326Z,33.55
2019-05-12T14:22:44.553Z,34.56
2019-05-12T14:27:47.050Z,32.28
2019-05-12T14:32:55.197Z,33.51
2019-05-12T14:37:57.774Z,32.33
2019-05-12T14:43:03.757Z,31.50
2019-05-12T14:48:09.270Z,31.50
2019-05-12T14:53:16.719Z,30.95
2019-05-12T14:58:24.747Z,31.87
2019-05-12T15:03:34.853Z,33.53
2019-05-12T15:08:43.615Z,32.85
2019-05-12T15:13:56.391Z,32.41
2019-05-12T15:18:59.879Z,33.15
2019-05-12T15:24:03.970Z,32.54
2019-05-12T15:29:13.641Z,32.30
2019-05-12T15:34:15.103Z,32.81
2019-05-12T15:39:19.441Z,32.01
2019-05-12T15:44:31.166Z,32.10
2019-05-12T15:49:27.729Z,32.19
2019-05-12T15:54:31.144Z,30.53
2019-05-12T15:59:39.708Z,30.98
2019-05-12T16:04:45.333Z,32.18
2019-05-12T16:09:47.591Z,32.03
2019-05-12T16:14:50.966Z,31.12
2019-05-12T16:19:56.695Z,31.59
2019-05-12T16:25:04.118Z,32.19
2019-05-12T16:30:10.601Z,32.47
2019-05-12T16:35:20.359Z,32.86
2019-05-12T16:40:26.361Z,31.75
2019-05-12T16:45:30.280Z,31.16
2019-05-12T16:50:34.646Z,30.14
2019-05-12T16:55:44.898Z,30.37
2019-05-12T17:00:45.233Z,31.19
2019-05-12T17:05:50.053Z,31.32
2019-05-12T17:11:00.923Z,30.70
2019-05-12T17:16:00.265Z,31.17
2019-05-12T17:21:04.359Z,30.28
2019-05-12T17:26:08.013Z,31.08
2019-05-12T17:31:11.599Z,32.28
2019-05-12T17:36:17.892Z,33.09
2019-05-12T17:41:19.934Z,35.24
2019-05-12T17:46:23.387Z,36.90
2019-05-12T17:51:30.774Z,38.86
2019-05-12T17:56:37.261Z,39.36
2019-05-12T18:01:37.269Z,40.34
2019-05-12T18:06:40.620Z,40.35
2019-05-12T18:11:46.137Z,40.50
2019-05-12T18:16:53.598Z,49.16
2019-05-12T18:22:03.432Z,41.97
2019-05-12T18:27:07.223Z,43.11
2019-05-12T18:32:08.515Z,44.20
2019-05-12T18:37:13.632Z,44.30
2019-05-12T18:42:16.340Z,45.45
2019-05-12T18:47:31.563Z,46.13
2019-05-12T18:52:29.198Z,46.27
2019-05-12T18:57:39.133Z,46.94
2019-05-12T19:02:39.621Z,47.63
2019-05-12T19:07:43.892Z,48.94
2019-05-12T19:12:51.747Z,49.18
2019-05-12T19:17:54.445Z,50.67
2019-05-12T19:23:00.050Z,51.33
2019-05-12T19:28:08.682Z,51.68
2019-05-12T19:33:10.674Z,51.65
2019-05-12T19:38:17.072Z,52.89
2019-05-12T19:43:20.594Z,53.88
2019-05-12T19:48:27.498Z,54.56
2019-05-12T19:53:29.927Z,54.90
2019-05-12T19:58:34.076Z,55.35
2019-05-12T20:03:37.621Z,55.92
2019-05-12T20:08:43.554Z,56.92
2019-05-12T20:13:46.049Z,57.18
2019-05-12T20:18:49.390Z,57.34
2019-05-12T20:23:54.271Z,58.44
2019-05-12T20:28:57.054Z,58.69
2019-05-12T20:34:04.214Z,59.04
2019-05-12T20:39:09.832Z,58.99
2019-05-12T20:44:16.966Z,59.45
2019-05-12T20:49:20.200Z,60.26
2019-05-12T20:54:23.929Z,60.94
2019-05-12T20:59:28.397Z,61.54
2019-05-12T21:04:37.059Z,62.52
2019-05-12T21:09:36.838Z,62.66
2019-05-12T21:14:42.604Z,61.46
2019-05-12T21:19:55.596Z,62.51
2019-05-12T21:24:50.465Z,62.77
2019-05-12T21:29:54.166Z,62.74
2019-05-12T21:34:59.470Z,62.29
2019-05-12T21:40:03.582Z,62.06
2019-05-12T21:45:08.391Z,64.29
2019-05-12T21:50:13.843Z,64.76
2019-05-12T21:55:21.690Z,63.23
2019-05-12T22:00:27.973Z,62.22
2019-05-12T22:05:48.096Z,62.63
2019-05-12T22:10:36.339Z,63.55
2019-05-12T22:15:38.474Z,64.25
2019-05-12T22:20:46.120Z,63.67
2019-05-12T22:25:49.194Z,63.81
2019-05-12T22:30:53.968Z,64.57
2019-05-12T22:36:04.916Z,65.33
2019-05-12T22:41:01.561Z,64.99
2019-05-12T22:46:04.784Z,65.22
2019-05-12T22:51:17.476Z,65.84
2019-05-12T22:56:17.431Z,66.08
2019-05-12T23:01:16.802Z,66.12
2019-05-12T23:06:24.093Z,66.65
2019-05-12T23:11:31.844Z,67.95
2019-05-12T23:16:29.655Z,68.53
2019-05-12T23:21:32.973Z,68.32
2019-05-12T23:26:41.986Z,68.41
2019-05-12T23:31:40.920Z,68.96
2019-05-12T23:36:44.568Z,69.15
2019-05-12T23:41:47.920Z,70.15
2019-05-12T23:46:50.984Z,70.39
2019-05-12T23:51:54.314Z,70.52
2019-05-12T23:56:57.929Z,71.24
